Time;durP1;ratioP1;P1;durP2;ratioP2;P2;SDS_P1;SDS_P2;PMS_P1;PMS_P2;Temp;Humidity;BMP_temperature;BMP_pressure;BME280_temperature;BME280_humidity;BME280_pressure;Samples;Min_cycle;Max_cycle;Signal;HPM_P1;HPM_P2
2022/05/12 00:00:01;;;;;;;2.93;2.73;;;15.40;99.90;;;;;;494658;240;28728;-70
2022/05/12 00:02:02;;;;;;;3.13;2.93;;;15.40;99.90;;;;;;494678;240;28744;-71
2022/05/12 00:04:04;;;;;;;3.20;3.00;;;15.40;99.90;;;;;;494668;240;28891;-70
2022/05/12 00:06:05;;;;;;;3.00;2.80;;;15.40;99.90;;;;;;494651;240;28747;-70
2022/05/12 00:08:07;;;;;;;3.00;2.80;;;15.50;99.90;;;;;;494673;240;28943;-70
2022/05/12 00:10:09;;;;;;;3.23;3.03;;;15.40;99.90;;;;;;494654;240;28890;-70
2022/05/12 00:12:10;;;;;;;3.00;2.80;;;15.40;99.90;;;;;;494629;240;28720;-70
2022/05/12 00:14:11;;;;;;;2.70;2.50;;;15.40;99.90;;;;;;494651;240;29317;-70
2022/05/12 00:16:12;;;;;;;3.20;3.00;;;15.40;99.90;;;;;;494679;240;29361;-73
2022/05/12 00:18:14;;;;;;;3.20;2.93;;;15.40;99.90;;;;;;494664;240;29167;-71
2022/05/12 00:20:15;;;;;;;2.97;2.77;;;15.40;99.90;;;;;;494642;240;29300;-70
2022/05/12 00:22:16;;;;;;;2.87;2.73;;;15.30;99.90;;;;;;494509;240;28699;-70
2022/05/12 00:24:17;;;;;;;3.43;3.20;;;15.30;99.90;;;;;;494624;240;28756;-70
2022/05/12 00:26:19;;;;;;;3.30;3.10;;;15.30;99.90;;;;;;494678;240;28757;-73
2022/05/12 00:28:20;;;;;;;3.40;3.10;;;15.30;99.90;;;;;;494653;240;28783;-70
2022/05/12 00:30:21;;;;;;;3.03;2.83;;;15.30;99.90;;;;;;494634;240;28767;-70
2022/05/12 00:32:23;;;;;;;2.77;2.57;;;15.20;99.90;;;;;;494644;240;28831;-69
2022/05/12 00:34:24;;;;;;;2.87;2.67;;;15.20;99.90;;;;;;494534;240;28815;-70
2022/05/12 00:36:25;;;;;;;2.53;2.30;;;15.10;99.90;;;;;;494670;240;28866;-70
2022/05/12 00:38:26;;;;;;;3.47;3.00;;;15.10;99.90;;;;;;494622;240;29181;-70
2022/05/12 00:40:27;;;;;;;2.60;2.50;;;15.00;99.90;;;;;;494635;240;29308;-71
2022/05/12 00:42:29;;;;;;;3.47;2.83;;;15.00;99.90;;;;;;494647;240;29465;-70
2022/05/12 00:44:30;;;;;;;2.77;2.57;;;15.00;99.90;;;;;;494636;240;29358;-70
2022/05/12 00:46:35;;;;;;;2.63;2.43;;;15.10;99.90;;;;;;494624;240;28823;-70
2022/05/12 00:48:36;;;;;;;2.90;2.70;;;15.00;99.90;;;;;;494646;240;28744;-72
2022/05/12 00:50:37;;;;;;;2.53;2.43;;;14.90;99.90;;;;;;494622;240;28705;-70
2022/05/12 00:52:38;;;;;;;3.43;2.97;;;14.90;99.90;;;;;;494593;240;28502;-70
2022/05/12 00:54:39;;;;;;;2.60;2.50;;;14.80;99.90;;;;;;494591;240;28815;-70
2022/05/12 00:56:41;;;;;;;3.30;3.00;;;14.90;99.90;;;;;;494596;240;28812;-72
2022/05/12 00:58:42;;;;;;;2.90;2.70;;;14.90;99.90;;;;;;494611;240;28899;-71
2022/05/12 01:00:43;;;;;;;2.90;2.70;;;14.90;99.90;;;;;;494622;240;28804;-70
2022/05/12 01:02:44;;;;;;;3.03;2.80;;;15.00;99.90;;;;;;494585;240;29258;-70
2022/05/12 01:04:46;;;;;;;3.00;2.80;;;15.00;99.90;;;;;;494614;240;29755;-70
2022/05/12 01:06:47;;;;;;;2.70;2.60;;;15.00;99.90;;;;;;494636;240;29184;-70
2022/05/12 01:08:48;;;;;;;3.10;2.90;;;15.10;99.90;;;;;;494639;240;28829;-70
2022/05/12 01:10:50;;;;;;;6.50;2.63;;;15.10;99.90;;;;;;494638;240;28704;-70
2022/05/12 01:12:51;;;;;;;3.00;2.80;;;15.10;99.90;;;;;;494624;240;28864;-70
2022/05/12 01:14:52;;;;;;;3.40;3.20;;;15.00;99.90;;;;;;494588;240;28739;-70
2022/05/12 01:16:53;;;;;;;2.83;2.73;;;15.00;99.90;;;;;;494643;236;28758;-70
2022/05/12 01:18:54;;;;;;;2.57;2.47;;;15.00;99.90;;;;;;494628;240;28825;-71
2022/05/12 01:20:56;;;;;;;3.10;2.90;;;15.00;99.90;;;;;;494652;240;28815;-69
2022/05/12 01:22:57;;;;;;;3.40;3.20;;;15.00;99.90;;;;;;494623;240;28736;-70
2022/05/12 01:24:59;;;;;;;3.90;3.13;;;15.00;99.90;;;;;;494676;240;29295;-70
2022/05/12 01:27:18;;;;;;;3.80;3.00;;;15.00;99.90;;;;;;494595;240;28810;-70
2022/05/12 01:29:01;;;;;;;3.00;2.80;;;14.90;99.90;;;;;;492883;240;28757;-71
2022/05/12 01:31:02;;;;;;;3.27;2.90;;;14.80;99.90;;;;;;494629;240;29289;-70
2022/05/12 01:33:04;;;;;;;2.77;2.57;;;14.90;99.90;;;;;;494612;240;29375;-70
2022/05/12 01:35:04;;;;;;;3.10;2.90;;;14.90;99.90;;;;;;494622;240;28939;-73
2022/05/12 01:37:06;;;;;;;2.60;2.50;;;14.90;99.90;;;;;;494645;240;28801;-69
2022/05/12 01:39:07;;;;;;;2.90;2.70;;;14.90;99.90;;;;;;494608;240;28952;-71
2022/05/12 01:41:08;;;;;;;2.57;2.43;;;15.00;99.90;;;;;;494628;240;28530;-70
2022/05/12 01:43:09;;;;;;;2.53;2.43;;;14.90;99.90;;;;;;494619;240;28811;-70
2022/05/12 01:45:11;;;;;;;2.97;2.70;;;15.00;99.90;;;;;;494658;240;28835;-69
2022/05/12 01:47:12;;;;;;;3.10;2.47;;;15.00;99.90;;;;;;494680;240;28487;-69
2022/05/12 01:49:13;;;;;;;3.03;2.83;;;15.00;99.90;;;;;;494656;240;28815;-70
2022/05/12 01:51:14;;;;;;;2.90;2.70;;;15.00;99.90;;;;;;494622;240;28408;-70
2022/05/12 01:53:16;;;;;;;2.90;2.70;;;15.00;99.90;;;;;;494621;240;28872;-71
2022/05/12 01:55:17;;;;;;;2.60;2.40;;;15.00;99.90;;;;;;494509;240;29501;-72
2022/05/12 01:57:18;;;;;;;2.20;2.10;;;15.00;99.90;;;;;;494655;240;29337;-70
2022/05/12 01:59:19;;;;;;;2.80;2.60;;;14.90;99.90;;;;;;494641;240;28469;-71
2022/05/12 02:01:21;;;;;;;2.90;2.70;;;14.90;99.90;;;;;;494625;236;28432;-70
2022/05/12 02:03:22;;;;;;;3.23;2.93;;;14.90;99.90;;;;;;494675;240;28891;-70
2022/05/12 02:05:23;;;;;;;2.87;2.27;;;14.80;99.90;;;;;;494653;240;29232;-72
2022/05/12 02:07:25;;;;;;;2.60;2.40;;;14.80;99.90;;;;;;494616;240;29168;-70
2022/05/12 02:09:26;;;;;;;2.93;2.50;;;14.70;99.90;;;;;;494608;240;28764;-70
2022/05/12 02:11:27;;;;;;;3.10;2.90;;;14.70;99.90;;;;;;494574;240;28510;-70
2022/05/12 02:13:28;;;;;;;2.70;2.60;;;14.70;99.90;;;;;;494664;240;28748;-70
2022/05/12 02:15:30;;;;;;;2.40;2.30;;;14.70;99.90;;;;;;494638;240;28482;-70
2022/05/12 02:17:31;;;;;;;2.40;2.30;;;14.60;99.90;;;;;;494617;240;28867;-70
2022/05/12 02:19:32;;;;;;;2.73;2.53;;;14.60;99.90;;;;;;494593;240;28943;-70
2022/05/12 02:21:33;;;;;;;2.33;2.13;;;14.60;99.90;;;;;;494600;240;29093;-70
2022/05/12 02:23:35;;;;;;;2.77;2.57;;;14.60;99.90;;;;;;494609;240;28532;-70
2022/05/12 02:25:36;;;;;;;2.87;2.67;;;14.60;99.90;;;;;;494453;240;28235;-70
2022/05/12 02:27:42;;;;;;;3.00;2.80;;;14.50;99.90;;;;;;494339;240;28429;-70
2022/05/12 02:29:38;;;;;;;2.53;2.33;;;14.50;99.90;;;;;;493938;240;28471;-70
2022/05/12 02:31:40;;;;;;;2.40;2.30;;;14.50;99.90;;;;;;494590;240;28372;-70
2022/05/12 02:33:41;;;;;;;2.30;2.20;;;14.50;99.90;;;;;;494655;240;28178;-70
2022/05/12 02:35:42;;;;;;;2.20;2.07;;;14.40;99.90;;;;;;494643;240;28457;-71
2022/05/12 02:37:43;;;;;;;2.50;2.40;;;14.40;99.90;;;;;;494637;240;28263;-70
2022/05/12 02:39:45;;;;;;;2.80;2.43;;;14.40;99.90;;;;;;494654;240;29302;-70
2022/05/12 02:41:46;;;;;;;2.27;2.17;;;14.40;99.90;;;;;;494672;240;29398;-71
2022/05/12 02:43:47;;;;;;;2.67;2.57;;;14.40;99.90;;;;;;494675;240;28852;-70
2022/05/12 02:45:48;;;;;;;2.80;2.60;;;14.30;99.90;;;;;;494668;240;28467;-70
2022/05/12 02:47:50;;;;;;;2.13;2.03;;;14.30;99.90;;;;;;494663;240;28151;-70
2022/05/12 02:49:51;;;;;;;1.93;1.83;;;14.30;99.90;;;;;;494638;240;28509;-70
2022/05/12 02:51:52;;;;;;;2.30;2.20;;;14.30;99.90;;;;;;494675;240;28941;-70
2022/05/12 02:53:54;;;;;;;2.20;2.10;;;14.30;99.90;;;;;;494648;240;28508;-70
2022/05/12 02:55:55;;;;;;;2.20;2.10;;;14.30;99.90;;;;;;494646;240;28436;-70
2022/05/12 02:57:56;;;;;;;2.10;2.00;;;14.30;99.90;;;;;;494636;240;28357;-69
2022/05/12 02:59:57;;;;;;;3.13;2.60;;;14.20;99.90;;;;;;494668;240;28102;-70
2022/05/12 03:01:59;;;;;;;2.30;2.20;;;14.20;99.90;;;;;;494658;240;28423;-70
2022/05/12 03:04:00;;;;;;;2.30;2.20;;;14.20;99.90;;;;;;494647;240;28094;-69
2022/05/12 03:06:01;;;;;;;2.33;2.20;;;14.10;99.90;;;;;;494607;240;28450;-71
2022/05/12 03:08:02;;;;;;;2.27;2.17;;;14.10;99.90;;;;;;494619;240;28584;-70
2022/05/12 03:10:04;;;;;;;2.20;2.10;;;14.10;99.90;;;;;;494683;240;28105;-69
2022/05/12 03:12:05;;;;;;;2.20;2.10;;;14.10;99.90;;;;;;494672;240;28687;-70
2022/05/12 03:14:06;;;;;;;2.13;2.03;;;14.10;99.90;;;;;;494689;240;28738;-70
2022/05/12 03:16:07;;;;;;;2.60;2.50;;;14.00;99.90;;;;;;494658;240;28741;-70
2022/05/12 03:18:09;;;;;;;2.50;2.40;;;14.10;99.90;;;;;;494657;240;28651;-71
2022/05/12 03:20:10;;;;;;;2.50;2.40;;;14.00;99.90;;;;;;494670;240;28274;-70
2022/05/12 03:22:12;;;;;;;2.73;2.47;;;13.90;99.90;;;;;;494662;240;28221;-69
2022/05/12 03:24:12;;;;;;;2.30;2.20;;;13.90;99.90;;;;;;494626;240;28373;-70
2022/05/12 03:26:14;;;;;;;2.30;2.20;;;13.90;99.90;;;;;;494628;240;28245;-71
2022/05/12 03:28:15;;;;;;;2.30;2.20;;;13.90;99.90;;;;;;494632;240;28171;-70
2022/05/12 03:30:16;;;;;;;2.60;2.40;;;13.90;99.90;;;;;;494637;236;28253;-70
2022/05/12 03:32:17;;;;;;;2.40;2.30;;;14.00;99.90;;;;;;494626;240;28426;-71
2022/05/12 03:34:19;;;;;;;2.40;2.30;;;14.10;99.90;;;;;;494644;240;28587;-70
2022/05/12 03:36:21;;;;;;;2.47;2.37;;;14.10;99.90;;;;;;494658;240;28882;-70
2022/05/12 03:38:21;;;;;;;2.10;2.00;;;14.10;99.90;;;;;;494573;240;28341;-70
2022/05/12 03:40:22;;;;;;;2.37;2.27;;;14.10;99.90;;;;;;494650;240;28368;-72
2022/05/12 03:42:24;;;;;;;2.40;2.10;;;14.10;99.90;;;;;;494649;240;28234;-70
2022/05/12 03:46:44;;;;;;;2.33;2.23;;;14.20;99.90;;;;;;494662;240;28174;-70
2022/05/12 03:48:46;;;;;;;2.20;2.10;;;14.20;99.90;;;;;;494640;240;28116;-73
2022/05/12 03:50:47;;;;;;;2.10;2.00;;;14.30;99.90;;;;;;494651;240;28489;-70
2022/05/12 03:52:48;;;;;;;2.17;2.07;;;14.30;99.90;;;;;;494642;240;28419;-70
2022/05/12 03:54:49;;;;;;;2.00;1.90;;;14.40;99.90;;;;;;494649;240;28135;-70
2022/05/12 03:56:51;;;;;;;2.17;2.07;;;14.40;99.90;;;;;;494671;240;29241;-70
2022/05/12 03:58:52;;;;;;;2.40;2.20;;;14.40;99.90;;;;;;494646;240;29022;-72
2022/05/12 04:00:53;;;;;;;2.30;2.20;;;14.40;99.90;;;;;;494648;240;29182;-70
2022/05/12 04:02:54;;;;;;;2.20;2.10;;;14.40;99.90;;;;;;494663;240;29088;-70
2022/05/12 04:04:56;;;;;;;2.30;2.20;;;14.40;99.90;;;;;;494643;240;28355;-70
2022/05/12 04:06:58;;;;;;;2.40;2.30;;;14.40;99.90;;;;;;494669;240;28309;-70
2022/05/12 04:08:59;;;;;;;2.30;2.20;;;14.40;99.90;;;;;;494652;240;28318;-70
2022/05/12 04:11:00;;;;;;;2.23;2.13;;;14.40;99.90;;;;;;494631;240;28349;-71
2022/05/12 04:13:02;;;;;;;2.47;2.37;;;14.40;99.90;;;;;;494630;236;28851;-70
2022/05/12 04:15:03;;;;;;;2.30;2.20;;;14.50;99.90;;;;;;494663;240;29344;-70
2022/05/12 04:17:04;;;;;;;2.33;2.23;;;14.50;99.90;;;;;;494615;240;29143;-74
2022/05/12 04:19:06;;;;;;;2.27;2.17;;;14.50;99.90;;;;;;494671;240;28387;-70
2022/05/12 04:21:07;;;;;;;3.07;2.10;;;14.50;99.90;;;;;;494652;240;28758;-71
2022/05/12 04:23:09;;;;;;;3.17;2.90;;;14.50;99.90;;;;;;494625;240;28368;-70
2022/05/12 04:25:09;;;;;;;2.73;2.53;;;14.60;99.90;;;;;;494604;240;28464;-71
2022/05/12 04:27:10;;;;;;;3.10;2.90;;;14.60;99.90;;;;;;494644;240;28479;-73
2022/05/12 04:29:12;;;;;;;2.97;2.73;;;14.60;99.90;;;;;;494651;240;28084;-70
2022/05/12 04:31:13;;;;;;;2.93;2.83;;;14.70;99.90;;;;;;494644;240;28542;-70
2022/05/12 04:35:34;;;;;;;2.93;2.77;;;14.70;99.90;;;;;;494633;240;28456;-70
2022/05/12 04:37:35;;;;;;;3.10;2.97;;;14.70;99.90;;;;;;494649;240;28449;-71
2022/05/12 04:39:37;;;;;;;2.60;2.50;;;14.70;99.90;;;;;;494616;240;28493;-70
2022/05/12 04:41:37;;;;;;;2.83;2.70;;;14.60;99.90;;;;;;494616;240;28873;-70
2022/05/12 04:43:39;;;;;;;3.07;2.87;;;14.70;99.90;;;;;;494665;240;28752;-73
2022/05/12 04:45:40;;;;;;;2.93;2.80;;;14.60;99.90;;;;;;494636;240;28926;-70
2022/05/12 04:47:41;;;;;;;3.07;2.40;;;14.70;99.90;;;;;;494605;237;28750;-70
2022/05/12 04:49:42;;;;;;;3.23;3.03;;;14.80;99.90;;;;;;494663;236;28860;-70
2022/05/12 04:51:44;;;;;;;2.73;2.63;;;14.90;99.90;;;;;;494607;240;29219;-70
2022/05/12 04:53:45;;;;;;;2.90;2.70;;;14.90;99.90;;;;;;494648;240;29224;-71
2022/05/12 04:55:47;;;;;;;3.50;3.30;;;15.00;99.90;;;;;;494702;240;29254;-70
2022/05/12 04:57:48;;;;;;;3.60;3.40;;;15.00;99.90;;;;;;494613;240;28780;-71
2022/05/12 04:59:49;;;;;;;3.00;2.90;;;15.00;99.90;;;;;;494659;240;28777;-70
2022/05/12 05:01:50;;;;;;;2.80;2.70;;;15.00;99.90;;;;;;494633;240;28874;-70
2022/05/12 05:03:51;;;;;;;3.17;2.97;;;15.10;99.90;;;;;;494688;240;28779;-70
2022/05/12 05:05:52;;;;;;;3.33;3.13;;;15.10;99.90;;;;;;494680;240;28695;-70
2022/05/12 05:07:54;;;;;;;2.83;2.73;;;15.10;99.90;;;;;;494672;240;28876;-70
2022/05/12 05:09:55;;;;;;;3.40;3.23;;;15.10;99.90;;;;;;494657;240;28808;-70
2022/05/12 05:11:56;;;;;;;3.50;3.20;;;15.20;99.90;;;;;;494669;240;28735;-70
2022/05/12 05:13:57;;;;;;;2.90;2.80;;;15.10;99.90;;;;;;494677;240;29146;-72
2022/05/12 05:15:59;;;;;;;2.97;2.77;;;15.10;99.90;;;;;;494653;240;29425;-70
2022/05/12 05:18:00;;;;;;;3.13;3.00;;;15.20;99.90;;;;;;494646;240;29432;-70
2022/05/12 05:20:03;;;;;;;3.70;3.40;;;15.10;99.90;;;;;;494626;240;29171;-70
2022/05/12 05:22:03;;;;;;;3.63;3.53;;;15.20;99.90;;;;;;494476;240;28840;-70
2022/05/12 05:24:05;;;;;;;3.40;3.20;;;15.20;99.90;;;;;;494668;240;28864;-74
2022/05/12 05:26:08;;;;;;;2.53;2.43;;;15.30;99.90;;;;;;494639;240;28959;-70
2022/05/12 05:28:07;;;;;;;2.53;2.43;;;15.20;99.90;;;;;;494553;240;28712;-70
2022/05/12 05:30:09;;;;;;;2.90;2.60;;;15.30;99.90;;;;;;494623;240;29333;-70
2022/05/12 05:32:10;;;;;;;2.40;2.30;;;15.30;99.90;;;;;;494675;240;29211;-73
2022/05/12 05:34:12;;;;;;;4.50;3.40;;;15.30;99.90;;;;;;494634;240;29260;-70
2022/05/12 05:36:12;;;;;;;3.63;3.43;;;15.40;99.90;;;;;;494640;240;28924;-71
2022/05/12 05:38:14;;;;;;;2.80;2.70;;;15.40;99.90;;;;;;494621;240;28710;-70
2022/05/12 05:40:15;;;;;;;4.20;3.30;;;15.40;99.90;;;;;;494636;237;28784;-71
2022/05/12 05:42:16;;;;;;;2.80;2.70;;;15.40;99.90;;;;;;494640;240;28822;-70
2022/05/12 05:44:17;;;;;;;3.37;3.17;;;15.50;99.90;;;;;;494690;240;28709;-70
2022/05/12 05:46:19;;;;;;;3.60;3.30;;;15.60;99.90;;;;;;494675;240;28765;-71
2022/05/12 05:48:20;;;;;;;3.57;3.27;;;15.60;99.90;;;;;;494584;240;28852;-70
2022/05/12 05:50:21;;;;;;;3.07;2.87;;;15.60;99.90;;;;;;494574;240;28751;-70
2022/05/12 05:54:42;;;;;;;4.30;3.27;;;15.60;99.90;;;;;;494671;236;28783;-70
2022/05/12 05:56:43;;;;;;;2.93;2.73;;;15.60;99.90;;;;;;494653;240;28989;-71
2022/05/12 05:58:44;;;;;;;2.70;2.60;;;15.70;99.90;;;;;;494661;240;28910;-70
2022/05/12 06:02:52;;;;;;;2.97;2.77;;;15.70;99.90;;;;;;494648;240;28827;-70
2022/05/12 06:04:53;;;;;;;2.20;2.00;;;15.70;99.90;;;;;;494680;240;28843;-74
2022/05/12 06:06:54;;;;;;;2.20;2.10;;;15.70;99.90;;;;;;494668;240;29396;-71
2022/05/12 06:08:55;;;;;;;2.30;2.20;;;15.70;99.90;;;;;;494661;240;29214;-70
2022/05/12 06:10:59;;;;;;;2.00;1.90;;;15.70;99.90;;;;;;494644;240;29183;-70
2022/05/12 06:12:58;;;;;;;3.00;2.13;;;15.70;99.90;;;;;;494494;240;28750;-70
2022/05/12 06:14:59;;;;;;;2.37;2.27;;;15.70;99.90;;;;;;494628;240;29130;-74
2022/05/12 06:17:00;;;;;;;2.17;1.90;;;15.70;99.90;;;;;;494682;240;28790;-70
2022/05/12 06:19:02;;;;;;;4.20;2.30;;;15.70;99.90;;;;;;494662;240;28841;-70
2022/05/12 06:21:04;;;;;;;2.37;2.20;;;15.70;99.90;;;;;;494662;240;28705;-70
2022/05/12 06:23:04;;;;;;;2.37;2.27;;;15.70;99.90;;;;;;494600;240;28756;-70
2022/05/12 06:25:06;;;;;;;1.90;1.80;;;15.70;99.90;;;;;;494710;240;28746;-71
2022/05/12 06:27:07;;;;;;;4.30;2.20;;;15.60;99.90;;;;;;494672;240;28818;-70
2022/05/12 06:29:08;;;;;;;2.60;2.00;;;15.60;99.90;;;;;;494642;240;28856;-71
2022/05/12 06:31:09;;;;;;;2.40;2.30;;;15.60;99.90;;;;;;494658;240;29591;-70
2022/05/12 06:33:10;;;;;;;2.33;2.00;;;15.60;99.90;;;;;;494667;240;29219;-70
2022/05/12 06:35:12;;;;;;;2.40;2.13;;;15.60;99.90;;;;;;494669;240;29347;-72
2022/05/12 06:37:13;;;;;;;2.03;1.93;;;15.60;99.90;;;;;;494567;240;29263;-70
2022/05/12 06:39:14;;;;;;;2.07;1.87;;;15.70;99.90;;;;;;494640;240;28836;-70
2022/05/12 06:41:15;;;;;;;2.20;2.00;;;15.80;99.90;;;;;;494628;240;28811;-71
2022/05/12 06:43:17;;;;;;;1.90;1.80;;;15.80;99.90;;;;;;494676;240;28820;-70
2022/05/12 06:45:18;;;;;;;3.90;2.07;;;15.70;99.90;;;;;;494648;240;28771;-70
2022/05/12 06:47:19;;;;;;;2.33;2.20;;;15.70;99.90;;;;;;494657;240;29220;-70
2022/05/12 06:49:21;;;;;;;2.33;2.13;;;15.80;99.90;;;;;;494677;240;28814;-71
2022/05/12 06:51:22;;;;;;;3.93;2.33;;;15.80;99.90;;;;;;494634;240;28716;-70
2022/05/12 06:53:23;;;;;;;2.73;2.40;;;15.80;99.90;;;;;;494687;240;29297;-71
2022/05/12 06:55:27;;;;;;;2.93;2.20;;;15.80;99.90;;;;;;494684;240;29333;-70
2022/05/12 06:57:28;;;;;;;3.27;2.10;;;15.90;99.90;;;;;;494498;240;29255;-70
2022/05/12 06:59:29;;;;;;;2.20;2.10;;;16.10;99.90;;;;;;494656;240;28815;-70
2022/05/12 07:01:31;;;;;;;2.43;2.23;;;16.10;99.90;;;;;;494651;240;28779;-71
2022/05/12 07:03:32;;;;;;;2.57;2.13;;;16.20;99.90;;;;;;494611;240;28758;-70
2022/05/12 07:05:34;;;;;;;2.73;1.93;;;16.30;99.90;;;;;;494656;240;29447;-71
2022/05/12 07:07:35;;;;;;;2.67;2.47;;;16.40;99.90;;;;;;494633;240;29406;-72
2022/05/12 07:09:37;;;;;;;2.07;1.97;;;16.50;99.90;;;;;;494668;240;29246;-70
2022/05/12 07:11:37;;;;;;;2.47;2.20;;;16.60;99.90;;;;;;494576;240;29308;-72
2022/05/12 07:13:38;;;;;;;4.40;2.10;;;16.70;99.90;;;;;;494682;240;28742;-70
2022/05/12 07:15:42;;;;;;;1.97;1.83;;;16.80;99.90;;;;;;494655;240;28966;-72
2022/05/12 07:17:46;;;;;;;2.03;1.83;;;16.80;99.90;;;;;;494707;240;28840;-74
2022/05/12 07:19:47;;;;;;;2.03;1.90;;;16.80;99.90;;;;;;494724;236;28758;-70
2022/05/12 07:26:39;;;;;;;2.60;1.83;;;17.00;99.90;;;;;;494690;240;28732;-71
2022/05/12 07:28:38;;;;;;;2.23;2.00;;;16.90;99.90;;;;;;494465;240;29401;-70
2022/05/12 07:32:59;;;;;;;2.70;1.93;;;17.20;99.90;;;;;;494701;240;28738;-70
2022/05/12 07:35:01;;;;;;;2.10;1.90;;;17.30;99.90;;;;;;494718;240;28715;-70
2022/05/12 07:37:02;;;;;;;2.50;2.30;;;17.10;99.90;;;;;;494704;240;28773;-70
2022/05/12 07:39:03;;;;;;;3.60;2.17;;;17.00;99.90;;;;;;494677;240;30017;-71
2022/05/12 07:41:09;;;;;;;3.80;1.63;;;16.90;99.90;;;;;;494715;240;29299;-70
2022/05/12 07:43:06;;;;;;;2.27;2.00;;;17.00;99.90;;;;;;494177;240;29338;-70
2022/05/12 07:45:07;;;;;;;3.80;2.10;;;17.00;99.90;;;;;;494757;240;28704;-71
2022/05/12 07:47:09;;;;;;;3.00;2.07;;;17.10;99.90;;;;;;494635;240;28844;-72
2022/05/12 07:49:09;;;;;;;3.93;2.10;;;17.20;99.90;;;;;;494664;240;28814;-71
2022/05/12 07:51:11;;;;;;;2.53;2.33;;;17.30;99.90;;;;;;494725;240;28792;-71
2022/05/12 07:53:12;;;;;;;2.00;1.90;;;17.30;99.90;;;;;;494703;240;28823;-71
2022/05/12 07:55:13;;;;;;;4.00;2.03;;;17.30;99.90;;;;;;494679;240;28724;-71
2022/05/12 07:57:14;;;;;;;2.20;2.00;;;17.30;99.90;;;;;;494694;240;28851;-70
2022/05/12 07:59:16;;;;;;;4.50;2.50;;;17.30;99.90;;;;;;494674;240;29301;-70
2022/05/12 08:01:17;;;;;;;3.90;2.50;;;17.40;99.90;;;;;;494707;240;28722;-71
2022/05/12 08:03:18;;;;;;;5.30;2.37;;;17.50;99.90;;;;;;494691;240;29323;-71
2022/05/12 08:05:19;;;;;;;2.20;2.10;;;17.50;99.90;;;;;;494696;236;29300;-70
2022/05/12 08:07:21;;;;;;;4.87;2.00;;;17.70;99.90;;;;;;494672;240;29225;-71
2022/05/12 08:09:22;;;;;;;4.10;2.10;;;17.60;99.90;;;;;;494687;240;28720;-71
2022/05/12 08:11:24;;;;;;;2.00;1.87;;;17.40;99.90;;;;;;494691;240;28776;-71
2022/05/12 08:13:25;;;;;;;2.20;2.00;;;17.50;99.90;;;;;;494644;240;28806;-74
2022/05/12 08:15:26;;;;;;;5.80;2.10;;;17.40;99.90;;;;;;494658;240;28718;-71
2022/05/12 08:17:27;;;;;;;2.87;2.40;;;17.30;99.90;;;;;;494656;236;28800;-71
2022/05/12 08:19:29;;;;;;;3.40;2.07;;;17.40;99.90;;;;;;494662;240;28832;-70
2022/05/12 08:21:29;;;;;;;2.23;1.83;;;17.50;99.90;;;;;;494645;240;28799;-71
2022/05/12 08:23:31;;;;;;;3.53;1.93;;;17.70;99.90;;;;;;494633;236;28825;-73
2022/05/12 08:25:32;;;;;;;5.40;2.40;;;17.90;99.90;;;;;;494642;240;28923;-70
2022/05/12 08:27:33;;;;;;;2.37;2.17;;;18.00;99.90;;;;;;494572;240;29394;-71
2022/05/12 08:29:34;;;;;;;1.80;1.70;;;18.10;99.90;;;;;;494430;240;29329;-71
2022/05/12 08:31:36;;;;;;;1.97;1.77;;;18.10;99.90;;;;;;494642;240;29231;-71
2022/05/12 08:33:37;;;;;;;2.50;2.10;;;18.00;99.90;;;;;;494630;240;29220;-73
2022/05/12 08:35:38;;;;;;;3.13;1.60;;;18.00;99.90;;;;;;494642;240;28752;-71
2022/05/12 08:37:39;;;;;;;4.83;1.83;;;18.10;99.90;;;;;;494604;240;28876;-72
2022/05/12 08:39:43;;;;;;;2.50;1.90;;;18.30;99.90;;;;;;494668;240;28824;-71
2022/05/12 08:41:42;;;;;;;2.17;1.73;;;18.60;99.90;;;;;;494427;240;28715;-71
2022/05/12 08:43:43;;;;;;;3.13;1.80;;;18.70;99.90;;;;;;494624;240;28747;-74
2022/05/12 08:45:45;;;;;;;2.33;2.00;;;18.60;99.90;;;;;;494664;240;28728;-73
2022/05/12 08:47:46;;;;;;;4.20;1.90;;;18.60;99.90;;;;;;494647;240;28734;-71
2022/05/12 08:49:47;;;;;;;2.10;1.90;;;18.50;99.90;;;;;;494660;240;28749;-74
2022/05/12 08:51:49;;;;;;;2.07;1.70;;;18.50;99.90;;;;;;494647;240;29266;-71
2022/05/12 08:53:50;;;;;;;2.80;1.70;;;18.40;99.90;;;;;;494633;240;29368;-73
2022/05/12 08:55:51;;;;;;;4.90;1.87;;;18.30;99.90;;;;;;494605;240;29300;-71
2022/05/12 08:57:54;;;;;;;3.87;2.10;;;18.40;99.90;;;;;;494648;240;28712;-72
2022/05/12 08:59:54;;;;;;;1.60;1.50;;;18.50;99.90;;;;;;494538;240;28757;-71
2022/05/12 09:01:55;;;;;;;2.13;1.57;;;18.60;99.90;;;;;;494634;240;28726;-71
2022/05/12 09:03:56;;;;;;;2.07;1.87;;;18.80;99.90;;;;;;494644;240;28933;-72
2022/05/12 09:05:57;;;;;;;2.30;1.90;;;18.70;99.90;;;;;;494629;240;28703;-71
2022/05/12 09:07:59;;;;;;;1.57;1.47;;;18.70;99.90;;;;;;494655;240;28719;-72
2022/05/12 09:10:00;;;;;;;2.70;1.90;;;18.70;99.90;;;;;;494645;240;28965;-74
2022/05/12 09:12:01;;;;;;;2.70;1.83;;;18.90;99.90;;;;;;494621;240;28711;-71
2022/05/12 09:14:06;;;;;;;2.00;1.50;;;18.80;99.90;;;;;;494624;240;28843;-72
2022/05/12 09:16:04;;;;;;;2.70;2.10;;;18.80;99.90;;;;;;494328;240;30081;-71
2022/05/12 09:18:05;;;;;;;2.03;1.80;;;18.60;99.90;;;;;;494663;240;29360;-71
2022/05/12 09:20:07;;;;;;;2.63;2.03;;;18.20;99.90;;;;;;494662;240;29340;-73
2022/05/12 09:22:07;;;;;;;1.90;1.80;;;18.10;99.90;;;;;;494640;240;28819;-70
2022/05/12 09:24:09;;;;;;;3.83;2.27;;;17.90;99.90;;;;;;494633;240;28757;-72
2022/05/12 09:26:10;;;;;;;2.07;1.80;;;17.90;99.90;;;;;;494617;240;28816;-70
2022/05/12 09:28:11;;;;;;;3.63;1.83;;;17.90;99.90;;;;;;494627;240;28708;-71
2022/05/12 09:30:12;;;;;;;3.07;1.80;;;18.10;99.90;;;;;;494625;240;28844;-74
2022/05/12 09:32:14;;;;;;;2.37;1.80;;;18.20;99.90;;;;;;494630;240;28711;-71
2022/05/12 09:34:15;;;;;;;2.17;1.70;;;18.60;99.90;;;;;;494628;240;28755;-72
2022/05/12 09:36:16;;;;;;;1.90;1.80;;;19.00;99.90;;;;;;494604;240;28715;-71
2022/05/12 09:38:17;;;;;;;3.00;1.47;;;19.20;99.90;;;;;;494640;240;28799;-71
2022/05/12 09:40:19;;;;;;;2.90;1.80;;;19.30;99.90;;;;;;494611;240;29321;-74
2022/05/12 09:42:26;;;;;;;2.10;1.90;;;19.50;99.90;;;;;;494624;240;29290;-71
2022/05/12 09:44:21;;;;;;;2.80;1.77;;;19.50;99.90;;;;;;494105;240;29315;-72
2022/05/12 09:46:22;;;;;;;2.30;1.93;;;19.10;99.90;;;;;;494615;240;30020;-70
2022/05/12 09:48:24;;;;;;;2.00;1.80;;;19.20;99.90;;;;;;494629;240;28828;-71
2022/05/12 09:50:26;;;;;;;1.70;1.60;;;19.20;99.90;;;;;;494626;240;28852;-72
2022/05/12 09:52:26;;;;;;;3.23;1.60;;;18.70;99.90;;;;;;493620;240;28923;-71
2022/05/12 09:54:28;;;;;;;3.33;2.00;;;18.60;99.90;;;;;;493178;240;28843;-71
2022/05/12 09:56:29;;;;;;;2.90;1.70;;;18.60;99.90;;;;;;493238;240;29198;-75
2022/05/12 09:58:30;;;;;;;2.80;2.17;;;18.70;99.90;;;;;;494076;240;28845;-71
2022/05/12 10:00:34;;;;;;;2.00;1.90;;;18.70;99.90;;;;;;494612;240;29263;-72
2022/05/12 10:09:33;;;;;;;4.60;1.80;;;18.10;99.90;;;;;;494636;240;28766;-72
2022/05/12 10:11:35;;;;;;;3.00;2.10;;;18.40;99.90;;;;;;494641;240;28808;-71
2022/05/12 10:13:36;;;;;;;1.80;1.70;;;18.50;99.90;;;;;;494628;240;28858;-72
2022/05/12 10:15:37;;;;;;;2.70;1.80;;;18.40;99.90;;;;;;494652;240;28874;-75
2022/05/12 10:17:38;;;;;;;2.70;2.00;;;18.30;99.90;;;;;;494652;240;28723;-71
2022/05/12 10:19:40;;;;;;;3.07;2.00;;;18.20;99.90;;;;;;494646;240;29231;-72
2022/05/12 10:21:42;;;;;;;2.20;2.00;;;18.30;99.90;;;;;;494636;240;29288;-70
2022/05/12 10:23:42;;;;;;;2.47;2.10;;;18.30;99.90;;;;;;494574;240;29221;-71
2022/05/12 10:25:56;;;;;;;2.63;1.80;;;18.30;99.90;;;;;;494650;240;29290;-71
2022/05/12 10:27:45;;;;;;;2.70;1.60;;;18.50;99.90;;;;;;493483;240;28747;-71
2022/05/12 10:29:46;;;;;;;1.87;1.60;;;18.70;99.90;;;;;;494638;240;28858;-73
2022/05/12 10:31:47;;;;;;;2.47;1.60;;;18.70;99.90;;;;;;494570;240;28810;-71
2022/05/12 10:33:49;;;;;;;4.20;2.17;;;18.60;99.90;;;;;;494621;240;28834;-72
2022/05/12 10:35:50;;;;;;;4.13;2.03;;;18.60;99.90;;;;;;494582;240;29131;-74
2022/05/12 10:37:51;;;;;;;2.53;1.60;;;18.70;99.90;;;;;;494651;240;28808;-71
2022/05/12 10:39:52;;;;;;;1.60;1.50;;;18.90;99.90;;;;;;494638;240;28756;-71
2022/05/12 10:41:54;;;;;;;3.53;1.83;;;19.20;99.90;;;;;;494641;240;28807;-71
2022/05/12 10:43:55;;;;;;;8.00;1.83;;;19.70;99.90;;;;;;494606;240;28753;-70
2022/05/12 10:45:56;;;;;;;1.93;1.70;;;19.80;99.90;;;;;;494615;237;29679;-75
2022/05/12 10:47:57;;;;;;;3.13;1.80;;;19.50;99.90;;;;;;494632;240;29286;-71
2022/05/12 10:49:58;;;;;;;2.60;2.10;;;19.40;99.90;;;;;;494640;240;29241;-73
2022/05/12 10:52:00;;;;;;;2.60;1.73;;;19.00;99.90;;;;;;494626;240;29272;-71
2022/05/12 10:54:01;;;;;;;3.53;2.17;;;19.00;99.90;;;;;;494651;240;28846;-71